Time;durP1;ratioP1;P1;durP2;ratioP2;P2;SDS_P1;SDS_P2;PMS_P1;PMS_P2;Temp;Humidity;BMP_temperature;BMP_pressure;BME280_temperature;BME280_humidity;BME280_pressure;Samples;Min_cycle;Max_cycle;Signal;HPM_P1;HPM_P2
2023/06/22 00:00:58;;;;;;;11.75;8.30;;;;;;;25.01;50.15;99895.03;3159531;28;20117;-68
2023/06/22 00:02:30;;;;;;;12.82;8.27;;;;;;;25.01;49.83;99897.69;3159967;28;20069;-68
2023/06/22 00:04:04;;;;;;;16.63;7.82;;;;;;;25.03;49.99;99898.38;3159799;28;20052;-69
2023/06/22 00:05:35;;;;;;;13.25;9.27;;;;;;;25.01;49.92;99896.84;3159754;28;20048;-69
2023/06/22 00:07:08;;;;;;;13.43;8.80;;;;;;;24.92;49.88;99885.31;3159856;28;20064;-68
2023/06/22 00:08:39;;;;;;;13.20;9.43;;;;;;;24.97;50.23;99899.00;3155252;28;20113;-68
2023/06/22 00:10:11;;;;;;;13.02;8.98;;;;;;;24.98;50.60;99906.00;3159592;28;20184;-68
2023/06/22 00:11:43;;;;;;;11.07;8.57;;;;;;;24.95;50.54;99901.81;3146837;28;20048;-68
2023/06/22 00:13:17;;;;;;;11.50;8.13;;;;;;;24.99;50.26;99905.00;3148632;28;20072;-68
2023/06/22 00:14:48;;;;;;;15.38;8.43;;;;;;;24.98;50.72;99901.50;3148585;28;20110;-68
2023/06/22 00:16:20;;;;;;;11.27;8.40;;;;;;;24.98;50.44;99906.84;3157763;28;20765;-68
2023/06/22 00:17:51;;;;;;;13.13;8.48;;;;;;;24.96;50.93;99900.84;3159649;28;20056;-68
2023/06/22 00:19:25;;;;;;;13.18;8.23;;;;;;;24.95;50.72;99904.50;3159457;28;20418;-71
2023/06/22 00:20:58;;;;;;;;;;;;;;;24.78;51.16;99908.06;3160230;28;20048;-72
2023/06/22 00:22:29;;;;;;;13.25;8.52;;;;;;;24.83;51.33;99907.59;3159446;28;20015;-70
2023/06/22 00:24:01;;;;;;;12.35;8.45;;;;;;;24.87;51.28;99909.78;3154851;28;20055;-70
2023/06/22 00:25:32;;;;;;;10.25;8.10;;;;;;;24.87;51.26;99920.44;3156867;28;20060;-71
2023/06/22 00:27:05;;;;;;;21.42;8.20;;;;;;;24.88;51.61;99915.97;3152383;28;20044;-71
2023/06/22 00:28:36;;;;;;;13.02;9.65;;;;;;;24.84;51.19;99930.56;3159476;28;20127;-71
2023/06/22 00:30:09;;;;;;;16.02;9.13;;;;;;;24.82;51.45;99922.75;3154816;28;20045;-70
2023/06/22 00:31:41;;;;;;;15.95;9.35;;;;;;;24.77;51.67;99921.56;3149916;28;20052;-70
2023/06/22 00:33:13;;;;;;;12.43;8.70;;;;;;;24.72;52.10;99922.00;3159329;28;20052;-70
2023/06/22 00:34:46;;;;;;;15.00;9.05;;;;;;;24.66;51.94;99918.16;3159359;28;20052;-71
2023/06/22 00:36:19;;;;;;;13.45;8.90;;;;;;;24.56;52.54;99922.75;3149164;28;20505;-70
2023/06/22 00:37:51;;;;;;;11.40;8.65;;;;;;;24.48;52.35;99925.34;3147441;28;20052;-70
2023/06/22 00:39:23;;;;;;;14.27;8.93;;;;;;;24.46;52.79;99927.31;3159397;28;20052;-70
2023/06/22 00:40:55;;;;;;;11.80;8.23;;;;;;;24.43;52.66;99936.50;3152604;28;20055;-70
2023/06/22 00:42:26;;;;;;;11.48;8.80;;;;;;;24.41;52.66;99930.44;3152111;28;20446;-68
2023/06/22 00:43:58;;;;;;;11.32;8.23;;;;;;;24.41;52.94;99932.28;3157778;28;20044;-68
2023/06/22 00:45:30;;;;;;;12.10;7.60;;;;;;;24.41;53.26;99932.28;3159138;28;20048;-67
2023/06/22 00:47:02;;;;;;;12.80;7.78;;;;;;;24.44;53.29;99932.00;3158790;28;20051;-67
2023/06/22 00:48:33;;;;;;;16.38;7.80;;;;;;;24.40;53.01;99934.09;3159152;28;20101;-68
2023/06/22 00:50:08;;;;;;;15.65;8.70;;;;;;;24.40;53.02;99934.09;3159389;28;20562;-68
2023/06/22 00:51:45;;;;;;;13.95;8.52;;;;;;;24.38;53.34;99935.25;3159214;28;20140;-67
2023/06/22 00:53:18;;;;;;;15.85;9.30;;;;;;;24.37;53.67;99929.06;3148551;28;20449;-68
2023/06/22 00:54:50;;;;;;;14.23;7.65;;;;;;;24.27;53.67;99929.16;3152074;28;20044;-70
2023/06/22 00:56:24;;;;;;;17.23;8.90;;;;;;;24.15;53.85;99922.41;3151771;28;20036;-69
2023/06/22 00:57:56;;;;;;;13.43;8.02;;;;;;;24.08;54.14;99929.34;3152105;28;20044;-69
2023/06/22 00:59:29;;;;;;;14.35;8.00;;;;;;;24.05;54.70;99927.81;3158937;28;20048;-70
2023/06/22 01:01:02;;;;;;;14.70;8.80;;;;;;;24.04;54.89;99914.66;3159075;28;20160;-68
2023/06/22 01:02:33;;;;;;;12.18;7.63;;;;;;;24.01;54.47;99918.47;3159211;28;20044;-68
2023/06/22 01:04:06;;;;;;;11.80;8.65;;;;;;;24.03;54.78;99927.13;3151631;28;20040;-68
2023/06/22 01:05:40;;;;;;;11.13;7.88;;;;;;;24.05;54.57;99927.00;3158988;28;20483;-68
2023/06/22 01:07:24;;;;;;;12.15;8.15;;;;;;;24.02;54.90;99922.81;3154829;28;20052;-68
2023/06/22 01:09:06;;;;;;;17.30;7.85;;;;;;;23.97;54.65;99926.91;3156074;28;20545;-68
2023/06/22 01:10:44;;;;;;;15.25;7.93;;;;;;;23.96;54.68;99925.22;3152632;28;20549;-69
2023/06/22 01:12:17;;;;;;;12.98;7.93;;;;;;;23.93;55.24;99928.19;3150066;28;20097;-68
2023/06/22 01:13:58;;;;;;;13.77;7.25;;;;;;;23.90;54.90;99923.19;3158971;28;20456;-68
2023/06/22 01:15:33;;;;;;;14.15;8.15;;;;;;;23.94;55.09;99927.22;3158918;28;20456;-68
2023/06/22 01:17:08;;;;;;;13.35;7.53;;;;;;;23.93;55.02;99925.53;3159019;28;20502;-68
2023/06/22 01:18:43;;;;;;;13.80;8.75;;;;;;;23.92;55.15;99924.69;3158800;28;20528;-69
2023/06/22 01:20:17;;;;;;;14.45;8.30;;;;;;;23.91;55.65;99932.84;3158607;28;20480;-69
2023/06/22 01:21:52;;;;;;;12.73;7.63;;;;;;;23.88;55.69;99931.31;3154764;28;20065;-69
2023/06/22 01:23:33;;;;;;;12.77;7.53;;;;;;;23.90;55.50;99932.03;3152340;28;20045;-69
2023/06/22 01:25:11;;;;;;;15.07;8.07;;;;;;;23.87;55.50;99927.00;3158515;28;20052;-69
2023/06/22 01:26:55;;;;;;;18.75;7.95;;;;;;;23.86;55.85;99922.66;3149050;28;20036;-69
2023/06/22 01:28:45;;;;;;;12.05;8.00;;;;;;;23.78;55.85;99918.09;3158872;28;20055;-69
2023/06/22 01:30:20;;;;;;;12.93;8.07;;;;;;;23.71;55.92;99911.72;3158848;28;20044;-69
2023/06/22 01:31:55;;;;;;;16.25;7.82;;;;;;;23.79;56.22;99918.94;3151257;28;20059;-69
2023/06/22 01:33:26;;;;;;;11.52;8.02;;;;;;;23.78;56.24;99917.25;3158126;28;20433;-69
2023/06/22 01:34:59;;;;;;;10.57;7.65;;;;;;;23.78;56.08;99925.22;3158454;28;20067;-69
2023/06/22 01:36:32;;;;;;;12.18;7.63;;;;;;;23.75;56.46;99921.06;3142129;28;20048;-69
2023/06/22 01:38:05;;;;;;;15.77;8.52;;;;;;;23.72;56.47;99918.72;3147733;28;20052;-69
2023/06/22 01:39:37;;;;;;;15.65;8.88;;;;;;;23.70;56.22;99923.34;3148557;28;20048;-69
2023/06/22 01:41:10;;;;;;;13.23;8.83;;;;;;;23.70;56.71;99925.16;3150858;28;20044;-70
2023/06/22 01:42:44;;;;;;;12.02;7.90;;;;;;;23.69;56.52;99918.13;3141575;28;20394;-70
2023/06/22 01:44:17;;;;;;;14.68;8.55;;;;;;;23.66;56.52;99911.28;3146265;28;20052;-70
2023/06/22 01:45:48;;;;;;;13.70;8.25;;;;;;;23.65;56.63;99909.63;3158044;28;20578;-70
2023/06/22 01:47:21;;;;;;;14.63;8.93;;;;;;;23.53;56.84;99898.38;3158681;28;20102;-71
2023/06/22 01:48:54;;;;;;;12.73;8.55;;;;;;;23.65;56.69;99908.78;3158613;28;20478;-71
2023/06/22 01:50:25;;;;;;;15.18;9.27;;;;;;;23.63;57.18;99911.59;3157354;28;20087;-71
2023/06/22 01:51:57;;;;;;;14.48;9.38;;;;;;;23.64;57.03;99910.63;3151001;28;20054;-70
2023/06/22 01:53:28;;;;;;;13.82;8.52;;;;;;;23.64;57.50;99910.63;3150846;28;20502;-71
2023/06/22 01:55:00;;;;;;;15.52;9.57;;;;;;;23.59;57.29;99911.06;3152901;28;20529;-70
2023/06/22 01:56:33;;;;;;;18.98;10.05;;;;;;;23.58;57.21;99917.38;3149781;28;20446;-70
2023/06/22 01:58:04;;;;;;;12.05;9.63;;;;;;;23.56;57.73;99915.84;3152109;28;20132;-70
2023/06/22 01:59:43;;;;;;;16.77;9.35;;;;;;;23.56;57.85;99921.16;3158609;28;20051;-70
2023/06/22 02:01:21;;;;;;;20.02;11.02;;;;;;;23.52;57.99;99925.13;3158416;28;20486;-70
2023/06/22 02:03:02;;;;;;;16.58;9.82;;;;;;;23.49;57.92;99923.59;3158245;28;20070;-70
2023/06/22 02:04:38;;;;;;;13.40;9.93;;;;;;;23.47;57.73;99930.03;3157761;28;20051;-71
2023/06/22 02:06:17;;;;;;;13.82;9.80;;;;;;;23.46;57.57;99933.69;3146498;28;20487;-71
2023/06/22 02:07:57;;;;;;;18.27;9.35;;;;;;;23.39;57.74;99923.63;3151708;28;20055;-71
2023/06/22 02:09:32;;;;;;;15.82;9.52;;;;;;;23.37;58.13;99925.63;3154004;28;20450;-69
2023/06/22 02:11:07;;;;;;;13.73;9.50;;;;;;;23.34;57.98;99923.25;3156830;28;20040;-69
2023/06/22 02:12:39;;;;;;;11.50;8.82;;;;;;;23.29;58.28;99922.84;3158025;28;20441;-69
2023/06/22 02:14:13;;;;;;;13.75;9.82;;;;;;;23.26;57.97;99912.53;3157831;28;20056;-69
2023/06/22 02:15:47;;;;;;;14.07;9.60;;;;;;;23.27;58.13;99916.00;3158727;28;20044;-68
2023/06/22 02:17:18;;;;;;;18.33;9.88;;;;;;;23.26;58.33;99920.50;3157789;28;20097;-69
2023/06/22 02:18:52;;;;;;;15.00;10.05;;;;;;;23.24;58.09;99914.47;3155819;28;20144;-69
2023/06/22 02:20:24;;;;;;;;;;;;;;;23.06;58.40;99927.72;3148599;28;20880;-69
2023/06/22 02:21:56;;;;;;;14.23;9.52;;;;;;;23.12;58.20;99920.97;3158263;28;19924;-69
2023/06/22 02:23:28;;;;;;;11.68;9.55;;;;;;;23.16;58.59;99933.00;3157901;28;20043;-69
2023/06/22 02:24:59;;;;;;;13.38;9.93;;;;;;;23.18;58.58;99931.00;3156425;28;20418;-69
2023/06/22 02:26:31;;;;;;;11.48;9.18;;;;;;;23.16;58.59;99930.34;3145115;28;20113;-69
2023/06/22 02:28:04;;;;;;;13.52;8.70;;;;;;;23.14;58.73;99921.69;3158044;28;20055;-69
2023/06/22 02:29:36;;;;;;;16.83;9.25;;;;;;;23.08;58.86;99925.75;3157887;28;20056;-69
2023/06/22 02:31:09;;;;;;;13.68;9.35;;;;;;;23.13;58.76;99931.47;3152659;28;20048;-69
2023/06/22 02:32:41;;;;;;;12.55;8.88;;;;;;;23.12;58.66;99931.59;3155555;28;20060;-70
2023/06/22 02:34:18;;;;;;;12.68;9.30;;;;;;;23.13;58.68;99936.78;3154989;28;20055;-69
2023/06/22 02:35:50;;;;;;;17.65;9.20;;;;;;;23.11;58.82;99936.09;3146078;28;20060;-69
2023/06/22 02:37:24;;;;;;;12.07;9.45;;;;;;;23.14;58.80;99934.97;3155326;28;20169;-69
2023/06/22 02:39:00;;;;;;;12.77;9.10;;;;;;;23.02;58.82;99928.16;3157869;28;20052;-70
2023/06/22 02:40:32;;;;;;;16.75;8.93;;;;;;;23.08;58.86;99943.53;3155436;28;20539;-70
2023/06/22 02:42:05;;;;;;;14.40;9.40;;;;;;;23.02;58.67;99938.78;3150888;28;20131;-68
2023/06/22 02:43:37;;;;;;;13.45;9.40;;;;;;;22.95;59.03;99941.16;3153230;28;20581;-69
2023/06/22 02:45:09;;;;;;;10.95;9.10;;;;;;;22.93;58.96;99951.09;3157736;28;20505;-69
2023/06/22 02:46:42;;;;;;;13.05;8.93;;;;;;;22.92;59.13;99946.75;3157555;28;20044;-68
2023/06/22 02:48:14;;;;;;;14.03;9.10;;;;;;;22.89;59.19;99945.25;3150864;28;20051;-69
2023/06/22 02:49:46;;;;;;;12.15;9.38;;;;;;;22.91;59.23;99940.59;3153728;28;20055;-69
2023/06/22 02:51:18;;;;;;;15.43;9.25;;;;;;;22.89;59.29;99944.38;3157761;28;20113;-69
2023/06/22 02:52:50;;;;;;;12.32;8.82;;;;;;;22.83;59.50;99944.97;3155469;28;20047;-69
2023/06/22 02:54:22;;;;;;;12.57;8.90;;;;;;;22.80;59.48;99945.25;3148087;28;20082;-69
2023/06/22 02:55:54;;;;;;;13.65;9.23;;;;;;;22.73;59.83;99947.66;3154421;28;20057;-69
2023/06/22 02:57:25;;;;;;;13.38;8.88;;;;;;;22.68;59.40;99947.22;3150130;28;20779;-70
2023/06/22 02:59:00;;;;;;;12.55;8.57;;;;;;;22.64;60.02;99948.50;3157729;28;20497;-69
2023/06/22 03:00:32;;;;;;;12.73;8.88;;;;;;;22.58;59.86;99955.22;3157320;28;20051;-69
2023/06/22 03:02:06;;;;;;;12.97;8.77;;;;;;;22.57;60.07;99950.03;3146767;28;20097;-69
2023/06/22 03:03:37;;;;;;;16.23;9.68;;;;;;;22.52;60.27;99952.31;3143540;28;20056;-69
2023/06/22 03:05:13;;;;;;;12.65;9.38;;;;;;;22.49;60.52;99958.75;3157107;28;20050;-68
2023/06/22 03:06:50;;;;;;;14.88;9.48;;;;;;;22.48;60.42;99960.56;3156638;28;20091;-69
2023/06/22 03:08:22;;;;;;;17.27;8.90;;;;;;;22.47;60.44;99964.16;3156329;28;20047;-69
2023/06/22 03:09:54;;;;;;;11.98;9.38;;;;;;;22.47;60.55;99964.16;3156056;28;20062;-69
2023/06/22 03:11:26;;;;;;;13.57;10.25;;;;;;;22.44;60.62;99961.81;3147106;28;20056;-69
2023/06/22 03:12:58;;;;;;;20.08;9.40;;;;;;;22.42;60.90;99962.91;3153658;28;20044;-69
2023/06/22 03:14:31;;;;;;;10.70;9.05;;;;;;;22.39;60.58;99966.72;3157331;28;20434;-69
2023/06/22 03:16:02;;;;;;;12.60;9.40;;;;;;;22.39;60.33;99957.91;3155733;28;20441;-69
2023/06/22 03:17:37;;;;;;;16.45;9.77;;;;;;;22.38;60.80;99959.72;3157731;28;20040;-69
2023/06/22 03:19:09;;;;;;;15.48;8.10;;;;;;;22.38;60.63;99966.84;3152971;28;20127;-69
2023/06/22 03:20:41;;;;;;;14.52;8.25;;;;;;;22.37;60.52;99962.53;3157775;28;20048;-71
2023/06/22 03:22:14;;;;;;;12.32;8.82;;;;;;;22.40;60.65;99963.06;3157555;28;20048;-70
2023/06/22 03:23:46;;;;;;;10.38;8.13;;;;;;;22.36;60.57;99967.00;3157730;28;20113;-70
2023/06/22 03:25:18;;;;;;;11.68;8.73;;;;;;;22.35;60.14;99972.44;3156861;28;20505;-71
2023/06/22 03:26:49;;;;;;;10.60;8.02;;;;;;;22.37;60.24;99968.66;3147966;28;20039;-71
2023/06/22 03:28:21;;;;;;;10.30;8.00;;;;;;;22.39;60.27;99980.00;3157468;28;20048;-71
2023/06/22 03:29:53;;;;;;;13.40;8.35;;;;;;;22.40;59.70;99970.22;3150315;28;20052;-70
2023/06/22 03:31:23;;;;;;;16.95;8.35;;;;;;;22.41;59.83;99972.69;3152996;28;20044;-71
2023/06/22 03:32:57;;;;;;;10.23;8.52;;;;;;;22.42;59.45;99974.41;3153318;28;20131;-71
2023/06/22 03:34:34;;;;;;;13.80;7.80;;;;;;;22.41;59.52;99974.53;3145210;28;20052;-70
2023/06/22 03:36:06;;;;;;;13.82;7.65;;;;;;;22.37;59.41;99978.44;3141820;28;20059;-72
2023/06/22 03:37:38;;;;;;;16.42;8.07;;;;;;;22.38;59.00;99985.41;3157289;28;20573;-72
2023/06/22 03:39:09;;;;;;;11.80;8.40;;;;;;;22.38;58.99;99980.94;3157601;28;20052;-70
2023/06/22 03:40:41;;;;;;;15.55;8.18;;;;;;;22.34;58.81;99976.91;3153594;28;20056;-70
2023/06/22 03:42:13;;;;;;;15.45;8.23;;;;;;;22.33;58.77;99977.91;3148477;28;20060;-70
2023/06/22 03:43:45;;;;;;;15.07;9.05;;;;;;;22.30;59.18;99974.66;3145350;28;20113;-70
2023/06/22 03:45:17;;;;;;;12.90;8.80;;;;;;;22.35;59.06;99981.22;3147973;28;20048;-71
2023/06/22 03:46:49;;;;;;;19.55;9.23;;;;;;;22.36;59.31;99985.56;3152075;28;20440;-70
2023/06/22 03:48:22;;;;;;;13.55;8.70;;;;;;;22.33;59.09;99979.69;3147294;28;20077;-70
2023/06/22 03:49:54;;;;;;;;;;;;;;;22.10;59.46;99987.06;3152443;28;20600;-69
2023/06/22 03:51:26;;;;;;;14.93;8.23;;;;;;;22.14;59.49;99988.47;3152254;28;19927;-69
2023/06/22 03:52:58;;;;;;;12.13;8.43;;;;;;;22.16;59.69;99989.16;3148616;28;20075;-69
2023/06/22 03:54:31;;;;;;;15.77;9.07;;;;;;;22.18;59.97;99989.88;3143503;28;20145;-69
2023/06/22 03:56:03;;;;;;;14.50;9.23;;;;;;;22.17;59.66;99989.06;3148862;28;20047;-70
2023/06/22 03:57:35;;;;;;;15.13;8.75;;;;;;;22.18;59.78;99979.28;3144553;28;20310;-69
2023/06/22 03:59:07;;;;;;;13.13;8.40;;;;;;;22.20;59.66;99987.94;3149570;28;20051;-69
2023/06/22 04:00:39;;;;;;;11.88;9.23;;;;;;;22.23;59.61;99982.34;3152184;28;20067;-69
2023/06/22 04:02:11;;;;;;;17.23;9.57;;;;;;;22.23;59.83;99982.34;3147519;28;20872;-69
2023/06/22 04:03:44;;;;;;;13.43;9.02;;;;;;;22.22;59.80;99970.06;3152566;28;20071;-70
2023/06/22 04:05:19;;;;;;;10.82;8.85;;;;;;;22.22;59.65;99978.03;3130784;28;20052;-69
2023/06/22 04:06:51;;;;;;;12.60;8.40;;;;;;;22.22;60.08;99976.22;3127427;28;20073;-69
2023/06/22 04:08:23;;;;;;;10.80;8.43;;;;;;;22.20;60.08;99972.03;3149896;28;20354;-69
2023/06/22 04:09:55;;;;;;;12.75;8.27;;;;;;;22.18;60.15;99971.31;3150808;28;20108;-69
2023/06/22 04:11:27;;;;;;;10.68;7.95;;;;;;;22.18;60.12;99973.97;3141949;28;20123;-69
2023/06/22 04:12:58;;;;;;;13.18;8.68;;;;;;;22.18;60.13;99971.31;3149318;28;20297;-70
2023/06/22 04:14:31;;;;;;;15.25;8.23;;;;;;;22.25;60.24;99975.09;3150956;28;20063;-70
2023/06/22 04:16:02;;;;;;;16.02;9.30;;;;;;;22.29;60.01;99976.47;3152023;28;20110;-70
2023/06/22 04:17:34;;;;;;;15.93;9.27;;;;;;;22.33;60.22;99977.03;3145843;28;20044;-70
2023/06/22 04:19:13;;;;;;;10.00;7.85;;;;;;;22.37;59.83;99983.75;3145990;28;20142;-70
2023/06/22 04:20:47;;;;;;;19.60;9.05;;;;;;;22.37;59.88;99987.25;3154382;28;20662;-69
2023/06/22 04:22:19;;;;;;;16.02;8.20;;;;;;;22.39;60.03;99982.63;3153023;28;20058;-71
2023/06/22 04:23:51;;;;;;;14.10;9.52;;;;;;;22.45;60.21;99986.53;3154407;28;20055;-71
2023/06/22 04:25:23;;;;;;;19.75;10.15;;;;;;;22.49;60.25;99988.75;3151468;28;20087;-70
2023/06/22 04:26:55;;;;;;;12.90;9.00;;;;;;;22.52;60.00;99992.13;3142265;28;20059;-69
2023/06/22 04:28:27;;;;;;;13.80;9.35;;;;;;;22.56;60.07;99986.38;3150959;28;20719;-70
2023/06/22 04:30:00;;;;;;;21.42;10.27;;;;;;;22.60;60.02;99995.75;3152990;28;20083;-77
2023/06/22 04:31:36;;;;;;;39.17;23.45;;;;;;;22.61;59.76;99983.31;3147313;28;20044;-79
2023/06/22 04:33:09;;;;;;;21.73;11.10;;;;;;;22.63;59.88;99990.16;3142023;28;20052;-78
2023/06/22 04:34:42;;;;;;;15.13;8.88;;;;;;;;;;3150721;28;20218;-78
2023/06/22 04:36:14;;;;;;;16.33;10.02;;;;;;;22.64;59.80;99991.81;3152253;28;20105;-79
2023/06/22 04:37:48;;;;;;;17.92;9.20;;;;;;;22.66;59.83;99989.03;3154064;28;20044;-78
2023/06/22 04:39:20;;;;;;;12.63;8.98;;;;;;;22.73;59.91;99978.69;3153055;28;20079;-78
2023/06/22 04:40:53;;;;;;;40.60;21.60;;;;;;;22.77;59.52;99991.50;3143160;28;20470;-78
2023/06/22 04:42:28;;;;;;;20.48;11.02;;;;;;;22.83;59.20;99995.41;3141332;28;20052;-78
2023/06/22 04:44:00;;;;;;;22.83;14.65;;;;;;;22.85;59.13;99991.63;3148063;28;20625;-72
2023/06/22 04:45:32;;;;;;;11.65;9.32;;;;;;;22.92;58.87;99997.19;3153989;28;20302;-73
2023/06/22 04:47:08;;;;;;;18.05;8.20;;;;;;;22.94;58.85;99998.75;3150853;28;20048;-72
2023/06/22 04:48:40;;;;;;;14.20;7.72;;;;;;;22.97;58.95;99996.81;3153153;28;20584;-73
2023/06/22 04:50:13;;;;;;;13.75;8.18;;;;;;;23.00;59.26;99997.34;3146395;28;20056;-72
2023/06/22 04:51:46;;;;;;;14.60;9.20;;;;;;;22.93;59.12;99989.09;3142916;28;20057;-73
2023/06/22 04:53:17;;;;;;;18.65;9.45;;;;;;;22.99;58.94;99985.06;3146093;28;20051;-71
2023/06/22 04:54:55;;;;;;;14.82;9.40;;;;;;;22.99;59.20;99978.91;3151624;28;20135;-73
2023/06/22 04:56:27;;;;;;;14.38;8.93;;;;;;;23.06;58.67;99987.97;3143177;28;20086;-74
2023/06/22 04:58:04;;;;;;;19.83;9.10;;;;;;;23.08;59.13;99988.69;3151308;28;20080;-73
2023/06/22 04:59:38;;;;;;;12.52;8.73;;;;;;;23.09;58.71;99985.84;3153904;28;20089;-73
2023/06/22 05:01:10;;;;;;;14.73;8.43;;;;;;;23.11;58.69;99978.59;3148190;28;20049;-73
2023/06/22 05:02:43;;;;;;;21.45;9.35;;;;;;;23.12;58.72;99979.41;3149679;28;20106;-73
2023/06/22 05:04:14;;;;;;;14.27;9.13;;;;;;;23.10;59.03;99974.28;3153747;28;20044;-73
2023/06/22 05:05:48;;;;;;;17.63;9.05;;;;;;;23.13;58.65;99979.28;3153919;28;20063;-72
2023/06/22 05:07:20;;;;;;;21.67;9.73;;;;;;;23.15;58.53;99979.97;3151438;28;20044;-73
2023/06/22 05:08:57;;;;;;;15.27;9.50;;;;;;;23.18;58.95;99973.53;3141336;28;20052;-73
2023/06/22 05:10:29;;;;;;;14.75;8.88;;;;;;;23.22;58.82;99977.56;3141929;28;20048;-73
2023/06/22 05:12:02;;;;;;;19.15;9.90;;;;;;;23.29;58.51;99968.03;3146428;28;20062;-73
2023/06/22 05:13:34;;;;;;;15.60;9.77;;;;;;;23.37;58.73;99975.28;3153570;28;20577;-73
2023/06/22 05:15:07;;;;;;;20.65;10.75;;;;;;;23.45;58.53;99977.19;3153678;28;20074;-73
2023/06/22 05:16:40;;;;;;;20.85;11.75;;;;;;;23.50;58.50;99970.44;3149566;28;20055;-73
2023/06/22 05:18:12;;;;;;;24.92;12.18;;;;;;;23.55;58.36;99972.66;3153389;28;20067;-72
2023/06/22 05:19:48;;;;;;;17.55;11.88;;;;;;;23.58;58.16;99975.84;3145822;28;20106;-70
2023/06/22 05:21:24;;;;;;;18.38;10.85;;;;;;;23.64;58.17;99969.09;3153374;28;20059;-69
2023/06/22 05:22:56;;;;;;;22.20;11.55;;;;;;;23.69;57.52;99966.81;3142693;28;20103;-72
2023/06/22 05:24:28;;;;;;;18.83;9.95;;;;;;;23.74;57.72;99972.56;3144409;28;20052;-71
2023/06/22 05:26:00;;;;;;;13.55;9.80;;;;;;;23.77;57.36;99969.59;3151557;28;20612;-72
2023/06/22 05:27:32;;;;;;;17.27;10.18;;;;;;;23.80;57.71;99974.63;3153640;28;20048;-72
2023/06/22 05:29:05;;;;;;;14.75;9.13;;;;;;;23.84;57.18;99976.00;3152760;28;20047;-71
2023/06/22 05:30:37;;;;;;;16.15;9.98;;;;;;;23.85;57.05;99971.53;3150692;28;20131;-71
2023/06/22 05:32:09;;;;;;;14.32;9.00;;;;;;;23.90;57.33;99977.22;3147452;28;20525;-71
2023/06/22 05:33:42;;;;;;;14.32;9.45;;;;;;;23.93;57.37;99976.06;3153514;28;20437;-70
2023/06/22 05:35:14;;;;;;;16.55;10.25;;;;;;;24.02;57.33;99977.84;3151506;28;20055;-71
2023/06/22 05:36:47;;;;;;;25.37;11.43;;;;;;;24.07;57.26;99976.38;3145569;28;20220;-69
2023/06/22 05:38:19;;;;;;;33.65;13.55;;;;;;;24.10;57.01;99975.25;3152925;28;20892;-71
2023/06/22 05:39:55;;;;;;;25.80;12.75;;;;;;;24.14;56.68;99962.50;3154284;28;20541;-70
2023/06/22 05:41:27;;;;;;;21.63;12.20;;;;;;;24.20;56.82;99976.00;3150942;28;20070;-70
2023/06/22 05:43:00;;;;;;;20.05;11.30;;;;;;;24.24;56.42;99971.22;3150702;28;20052;-70
2023/06/22 05:44:33;;;;;;;19.30;10.02;;;;;;;24.28;56.15;99976.09;3157934;28;20413;-70
2023/06/22 05:46:07;;;;;;;16.58;10.52;;;;;;;24.36;56.24;99971.81;3147677;28;20113;-70
2023/06/22 05:47:39;;;;;;;15.65;9.02;;;;;;;24.43;56.33;99975.56;3158288;28;20101;-70
2023/06/22 05:49:11;;;;;;;16.92;9.30;;;;;;;24.50;55.87;99968.63;3158296;28;20048;-69
2023/06/22 05:50:43;;;;;;;15.30;8.10;;;;;;;24.57;55.33;99977.66;3145375;28;20052;-68
2023/06/22 05:52:17;;;;;;;11.52;8.27;;;;;;;24.64;55.40;99973.41;3154282;28;20050;-68
2023/06/22 05:53:49;;;;;;;11.27;7.65;;;;;;;24.69;54.79;99976.41;3154129;28;20043;-69
2023/06/22 05:55:22;;;;;;;12.10;7.97;;;;;;;24.75;55.02;99975.78;3155088;28;20175;-68
2023/06/22 05:56:54;;;;;;;9.52;7.70;;;;;;;24.85;55.13;99977.53;3145491;28;20048;-69
2023/06/22 05:58:26;;;;;;;13.55;8.40;;;;;;;24.98;54.92;99981.44;3158653;28;20075;-69
2023/06/22 05:59:58;;;;;;;12.82;8.27;;;;;;;25.12;54.71;99977.34;3157855;28;20052;-68
2023/06/22 06:01:41;;;;;;;11.00;7.15;;;;;;;25.30;54.58;99977.28;3144445;28;20044;-69
2023/06/22 06:03:16;;;;;;;22.75;9.18;;;;;;;25.47;54.18;99972.00;3157885;28;20051;-69
2023/06/22 06:04:51;;;;;;;11.95;8.00;;;;;;;25.58;54.28;99961.88;3153759;28;20048;-68
2023/06/22 06:06:28;;;;;;;13.23;7.47;;;;;;;25.71;53.96;99972.13;3156324;28;20472;-68
2023/06/22 06:08:10;;;;;;;11.98;7.97;;;;;;;25.79;53.23;99973.94;3157927;28;20043;-68
2023/06/22 06:09:42;;;;;;;9.85;7.60;;;;;;;25.84;53.28;99977.81;3144869;28;20052;-70
2023/06/22 06:11:15;;;;;;;14.30;7.30;;;;;;;25.91;53.04;99974.50;3150797;28;20044;-70
2023/06/22 06:12:47;;;;;;;15.75;8.30;;;;;;;25.93;52.68;99975.19;3157274;28;20052;-68
2023/06/22 06:14:20;;;;;;;14.48;8.80;;;;;;;25.99;52.47;99975.34;3156515;28;20459;-68
2023/06/22 06:15:54;;;;;;;17.08;8.00;;;;;;;26.05;52.28;99985.38;3151267;28;20135;-69
2023/06/22 06:17:26;;;;;;;15.45;7.63;;;;;;;26.12;51.98;99980.22;3158031;28;20131;-72
2023/06/22 06:18:58;;;;;;;14.00;8.55;;;;;;;26.06;51.27;99952.38;3150358;28;20044;-71
2023/06/22 06:20:30;;;;;;;14.88;7.00;;;;;;;26.21;51.00;99968.56;3146838;28;20506;-68
2023/06/22 06:22:02;;;;;;;11.05;6.55;;;;;;;26.22;50.99;99970.22;3154685;28;20052;-69
2023/06/22 06:23:36;;;;;;;8.93;7.03;;;;;;;26.21;50.39;99960.53;3158127;28;20160;-69
2023/06/22 06:25:07;;;;;;;;;;;;;;;26.15;51.22;99966.56;3158150;28;20377;-68
2023/06/22 06:26:39;;;;;;;14.40;7.07;;;;;;;26.22;50.78;99959.53;3152654;28;19978;-68
2023/06/22 06:28:11;;;;;;;11.57;7.03;;;;;;;26.34;50.38;99962.69;3157564;28;20044;-68
2023/06/22 06:29:42;;;;;;;11.52;7.10;;;;;;;26.42;50.21;99965.38;3152832;28;20048;-67
2023/06/22 06:31:17;;;;;;;12.63;7.55;;;;;;;26.45;49.74;99957.03;3137570;28;20049;-67
2023/06/22 06:32:49;;;;;;;22.85;7.32;;;;;;;26.54;49.60;99963.22;3148307;28;20052;-70
2023/06/22 06:34:21;;;;;;;19.67;13.05;;;;;;;26.66;49.56;99967.22;3156942;28;20055;-69
2023/06/22 06:35:52;;;;;;;33.72;23.38;;;;;;;26.74;49.29;99967.22;3151392;28;20052;-70
2023/06/22 06:37:26;;;;;;;22.20;16.05;;;;;;;26.83;48.78;99965.34;3155299;28;20128;-71
2023/06/22 06:39:00;;;;;;;16.55;8.80;;;;;;;26.93;48.56;99966.00;3158006;28;20520;-67
2023/06/22 06:40:32;;;;;;;12.25;6.85;;;;;;;27.02;48.06;99974.81;3154825;28;20139;-68
2023/06/22 06:42:06;;;;;;;13.73;6.93;;;;;;;27.10;48.04;99969.47;3151378;28;20058;-67
2023/06/22 06:43:38;;;;;;;9.40;6.75;;;;;;;27.13;47.92;99966.44;3147833;28;20082;-67
2023/06/22 06:45:11;;;;;;;9.68;6.82;;;;;;;27.14;47.15;99969.94;3146370;28;20541;-67
2023/06/22 06:46:43;;;;;;;10.98;6.97;;;;;;;27.13;47.15;99971.78;3150127;28;20052;-68
2023/06/22 06:48:15;;;;;;;13.32;7.00;;;;;;;27.20;46.64;99967.44;3150075;28;20435;-67
2023/06/22 06:49:47;;;;;;;14.40;7.07;;;;;;;27.28;47.02;99966.59;3147061;28;20052;-68
2023/06/22 06:51:19;;;;;;;14.82;7.05;;;;;;;27.35;46.82;99956.84;3156438;28;20505;-67
2023/06/22 06:52:51;;;;;;;12.05;6.22;;;;;;;27.44;46.17;99960.31;3155044;28;20098;-69
2023/06/22 06:54:24;;;;;;;11.03;6.90;;;;;;;27.52;46.26;99957.59;3155320;28;20112;-68
2023/06/22 06:55:57;;;;;;;15.55;7.00;;;;;;;27.61;46.04;99958.41;3151499;28;20897;-68
2023/06/22 06:57:29;;;;;;;11.82;7.10;;;;;;;27.68;45.90;99952.16;3153845;28;20059;-67
2023/06/22 06:59:01;;;;;;;12.45;7.03;;;;;;;27.79;45.93;99958.16;3156706;28;20414;-66
2023/06/22 07:00:33;;;;;;;11.88;7.20;;;;;;;27.94;45.24;99958.22;3147183;28;20067;-67
2023/06/22 07:02:05;;;;;;;12.95;6.55;;;;;;;28.06;44.99;99959.47;3154933;28;20127;-68
2023/06/22 07:03:38;;;;;;;10.88;6.90;;;;;;;28.15;45.19;99953.03;3154964;28;20071;-67
2023/06/22 07:05:21;;;;;;;15.68;6.70;;;;;;;28.27;44.61;99950.75;3157839;28;20436;-68
2023/06/22 07:06:55;;;;;;;11.70;6.43;;;;;;;28.35;44.61;99954.22;3157500;28;20135;-68
2023/06/22 07:08:28;;;;;;;8.88;6.55;;;;;;;28.44;44.46;99959.53;3155060;28;20052;-74
2023/06/22 07:10:06;;;;;;;7.65;6.13;;;;;;;28.52;44.40;99954.09;3153986;28;20505;-72
2023/06/22 07:11:38;;;;;;;12.05;6.43;;;;;;;28.60;44.27;99947.81;3146883;28;20155;-74
2023/06/22 07:13:11;;;;;;;13.18;6.55;;;;;;;28.68;43.99;99948.56;3157244;28;20101;-74
2023/06/22 07:14:44;;;;;;;9.32;5.93;;;;;;;28.74;43.67;99945.16;3147484;28;20060;-74